Time;durP1;ratioP1;P1;durP2;ratioP2;P2;SDS_P1;SDS_P2;PMS_P1;PMS_P2;Temp;Humidity;BMP_temperature;BMP_pressure;BME280_temperature;BME280_humidity;BME280_pressure;Samples;Min_cycle;Max_cycle;Signal;HPM_P1;HPM_P2
2022/12/05 00:01:58;;;;;;;;;;;;;;;;;;8417387;28;28553;-84
2022/12/05 00:05:58;;;;;;;;;;;;;;;;;;8422815;27;28907;-83
2022/12/05 00:09:58;;;;;;;;;;;;;;;;;;8426154;28;28473;-84
2022/12/05 00:13:58;;;;;;;;;;;;;;;;;;8423635;28;28842;-83
2022/12/05 00:17:58;;;;;;;;;;;;;;;;;;8426600;28;28485;-84
2022/12/05 00:21:58;;;;;;;;;;;;;;;;;;8423129;28;29814;-83
2022/12/05 00:25:58;;;;;;;;;;;;;;;;;;8445196;28;28493;-83
2022/12/05 00:29:58;;;;;;;;;;;;;;;;;;8428237;28;29095;-84
2022/12/05 00:33:58;;;;;;;;;;;;;;;;;;8444417;28;27550;-84
2022/12/05 00:37:58;;;;;;;;;;;;;;;;;;8441343;27;27879;-84
2022/12/05 00:41:59;;;;;;;;;;;;;;;;;;8441273;28;27825;-83
2022/12/05 00:45:59;;;;;;;;;;;;;;;;;;8427683;28;28755;-84
2022/12/05 00:49:59;;;;;;;;;;;;;;;;;;8438458;28;28544;-83
2022/12/05 00:53:59;;;;;;;;;;;;;;;;;;8422352;28;28926;-84
2022/12/05 00:57:59;;;;;;;;;;;;;;;;;;8444706;28;27374;-84
2022/12/05 01:01:59;;;;;;;;;;;;;;;;;;8441781;28;28778;-83
2022/12/05 01:05:59;;;;;;;;;;;;;;;;;;8424198;28;28743;-84
2022/12/05 01:09:59;;;;;;;;;;;;;;;;;;8427578;28;28616;-84
2022/12/05 01:13:59;;;;;;;;;;;;;;;;;;8422836;28;29853;-83
2022/12/05 01:17:59;;;;;;;;;;;;;;;;;;8442341;27;27795;-84
2022/12/05 01:21:59;;;;;;;;;;;;;;;;;;8426424;28;29863;-83
2022/12/05 01:26:00;;;;;;;;;;;;;;;;;;8442474;28;27431;-83
2022/12/05 01:30:00;;;;;;;;;;;;;;;;;;8439001;28;28816;-83
2022/12/05 01:34:02;;;;;;;;;;;;;;;;;;8425400;28;47597;-84
2022/12/05 01:38:02;;;;;;;;;;;;;;;;;;8430601;28;28759;-83
2022/12/05 01:42:02;;;;;;;;;;;;;;;;;;8444360;28;28061;-83
2022/12/05 01:46:02;;;;;;;;;;;;;;;;;;8441007;28;28862;-82
2022/12/05 01:50:02;;;;;;;;;;;;;;;;;;8423167;28;28973;-84
2022/12/05 01:54:02;;;;;;;;;;;;;;;;;;8426153;28;29764;-83
2022/12/05 01:58:02;;;;;;;;;;;;;;;;;;8423710;28;28653;-83
2022/12/05 02:02:02;;;;;;;;;;;;;;;;;;8446949;28;27322;-85
2022/12/05 02:06:02;;;;;;;;;;;;;;;;;;8450848;28;27196;-85
2022/12/05 02:10:02;;;;;;;;;;;;;;;;;;8450374;28;27372;-85
2022/12/05 02:14:03;;;;;;;;;;;;;;;;;;8433822;28;28646;-85
2022/12/05 02:18:03;;;;;;;;;;;;;;;;;;8444938;28;27836;-85
2022/12/05 02:22:03;;;;;;;;;;;;;;;;;;8446852;28;27522;-83
2022/12/05 02:26:03;;;;;;;;;;;;;;;;;;8444899;28;27510;-84
2022/12/05 02:30:03;;;;;;;;;;;;;;;;;;8423825;28;28450;-85
2022/12/05 02:34:03;;;;;;;;;;;;;;;;;;8449262;28;27599;-85
2022/12/05 02:38:03;;;;;;;;;;;;;;;;;;8424229;28;28297;-84
2022/12/05 02:42:03;;;;;;;;;;;;;;;;;;8428247;28;28781;-84
2022/12/05 02:46:04;;;;;;;;;;;;;;;;;;8446833;28;28625;-84
2022/12/05 02:50:04;;;;;;;;;;;;;;;;;;8427187;28;28922;-84
2022/12/05 02:54:04;;;;;;;;;;;;;;;;;;8425728;28;29998;-84
2022/12/05 02:58:04;;;;;;;;;;;;;;;;;;8439436;28;27663;-84
2022/12/05 03:02:04;;;;;;;;;;;;;;;;;;8445325;28;27893;-84
2022/12/05 03:06:04;;;;;;;;;;;;;;;;;;8427702;28;28784;-83
2022/12/05 03:10:04;;;;;;;;;;;;;;;;;;8425706;28;28732;-85
2022/12/05 03:14:04;;;;;;;;;;;;;;;;;;8439793;28;27201;-84
2022/12/05 03:18:05;;;;;;;;;;;;;;;;;;8422956;28;28775;-83
2022/12/05 03:22:05;;;;;;;;;;;;;;;;;;8418988;28;29070;-85
2022/12/05 03:26:10;;;;;;;;;;;;;;;;;;8440306;28;27507;-83
2022/12/05 03:30:11;;;;;;;;;;;;;;;;;;8421154;28;28580;-85
2022/12/05 03:34:11;;;;;;;;;;;;;;;;;;8442413;28;27394;-84
2022/12/05 03:38:11;;;;;;;;;;;;;;;;;;8439425;28;28924;-85
2022/12/05 03:42:11;;;;;;;;;;;;;;;;;;8424689;28;28450;-84
2022/12/05 03:46:11;;;;;;;;;;;;;;;;;;8419656;28;28527;-83
2022/12/05 03:50:11;;;;;;;;;;;;;;;;;;8408934;28;28549;-85
2022/12/05 03:54:12;;;;;;;;;;;;;;;;;;8419986;28;28777;-84
2022/12/05 03:58:12;;;;;;;;;;;;;;;;;;8439607;28;27163;-83
2022/12/05 04:02:12;;;;;;;;;;;;;;;;;;8437813;28;27467;-84
2022/12/05 04:06:12;;;;;;;;;;;;;;;;;;8419602;28;29125;-85
2022/12/05 04:10:12;;;;;;;;;;;;;;;;;;8442571;28;27258;-83
2022/12/05 04:14:12;;;;;;;;;;;;;;;;;;8442645;28;27333;-83
2022/12/05 04:18:12;;;;;;;;;;;;;;;;;;8437084;28;27554;-82
2022/12/05 04:22:12;;;;;;;;;;;;;;;;;;8438762;28;27333;-84
2022/12/05 04:26:12;;;;;;;;;;;;;;;;;;8434286;28;28810;-83
2022/12/05 04:30:12;;;;;;;;;;;;;;;;;;8418277;28;28727;-83
2022/12/05 04:34:12;;;;;;;;;;;;;;;;;;8422256;28;28727;-84
2022/12/05 04:38:13;;;;;;;;;;;;;;;;;;8421813;28;28161;-83
2022/12/05 04:42:13;;;;;;;;;;;;;;;;;;8423635;28;28581;-83
2022/12/05 04:46:13;;;;;;;;;;;;;;;;;;8419579;28;28734;-85
2022/12/05 04:50:13;;;;;;;;;;;;;;;;;;8424153;28;28446;-83
2022/12/05 04:54:13;;;;;;;;;;;;;;;;;;8427844;28;28899;-84
2022/12/05 04:58:13;;;;;;;;;;;;;;;;;;8422254;28;28812;-84
2022/12/05 05:02:13;;;;;;;;;;;;;;;;;;8424186;28;27340;-84
2022/12/05 05:06:13;;;;;;;;;;;;;;;;;;8422816;28;28588;-85
2022/12/05 05:10:14;;;;;;;;;;;;;;;;;;8425513;28;28739;-84
2022/12/05 05:14:14;;;;;;;;;;;;;;;;;;8448175;28;28921;-85
2022/12/05 05:18:14;;;;;;;;;;;;;;;;;;8444041;28;27385;-85
2022/12/05 05:22:14;;;;;;;;;;;;;;;;;;8428885;28;27257;-85
2022/12/05 05:26:14;;;;;;;;;;;;;;;;;;8444469;28;27613;-84
2022/12/05 05:30:14;;;;;;;;;;;;;;;;;;8428647;28;27715;-84
2022/12/05 05:34:15;;;;;;;;;;;;;;;;;;8422919;28;27520;-85
2022/12/05 05:38:15;;;;;;;;;;;;;;;;;;8422241;28;28557;-83
2022/12/05 05:42:15;;;;;;;;;;;;;;;;;;8422876;28;28781;-84
2022/12/05 05:46:15;;;;;;;;;;;;;;;;;;8424069;28;27419;-84
2022/12/05 05:50:15;;;;;;;;;;;;;;;;;;8426244;28;28493;-84
2022/12/05 05:54:15;;;;;;;;;;;;;;;;;;8422540;27;30063;-84
2022/12/05 05:58:15;;;;;;;;;;;;;;;;;;8439845;27;27438;-84
2022/12/05 06:02:15;;;;;;;;;;;;;;;;;;8430066;27;28831;-82
2022/12/05 06:06:16;;;;;;;;;;;;;;;;;;8433768;27;28523;-84
2022/12/05 06:10:16;;;;;;;;;;;;;;;;;;8428019;28;28830;-84
2022/12/05 06:14:16;;;;;;;;;;;;;;;;;;8425437;28;28694;-84
2022/12/05 06:18:16;;;;;;;;;;;;;;;;;;8427652;28;28683;-84
2022/12/05 06:22:16;;;;;;;;;;;;;;;;;;8438597;28;28686;-84
2022/12/05 06:26:16;;;;;;;;;;;;;;;;;;8428755;28;30063;-84
2022/12/05 06:30:16;;;;;;;;;;;;;;;;;;8445192;28;27273;-84
2022/12/05 06:34:16;;;;;;;;;;;;;;;;;;8423286;28;28591;-84
2022/12/05 06:38:16;;;;;;;;;;;;;;;;;;8423450;28;28742;-85
2022/12/05 06:42:16;;;;;;;;;;;;;;;;;;8443703;28;27211;-84
2022/12/05 06:46:17;;;;;;;;;;;;;;;;;;8443641;28;27609;-82
2022/12/05 06:50:17;;;;;;;;;;;;;;;;;;8422518;28;28541;-85
2022/12/05 06:54:17;;;;;;;;;;;;;;;;;;8441982;28;27394;-86
2022/12/05 06:58:17;;;;;;;;;;;;;;;;;;8422924;28;28495;-84
2022/12/05 07:02:17;;;;;;;;;;;;;;;;;;8429375;28;28658;-84
2022/12/05 07:06:17;;;;;;;;;;;;;;;;;;8445533;28;28963;-84
2022/12/05 07:10:17;;;;;;;;;;;;;;;;;;8428840;28;28674;-83
2022/12/05 07:14:17;;;;;;;;;;;;;;;;;;8427010;28;28542;-83
2022/12/05 07:18:18;;;;;;;;;;;;;;;;;;8448055;28;27262;-83
2022/12/05 07:22:18;;;;;;;;;;;;;;;;;;8427515;28;28745;-83
2022/12/05 07:26:18;;;;;;;;;;;;;;;;;;8426135;28;28930;-82
2022/12/05 07:30:18;;;;;;;;;;;;;;;;;;8425650;28;28837;-83
2022/12/05 07:34:18;;;;;;;;;;;;;;;;;;8412969;27;28481;-83
2022/12/05 07:38:18;;;;;;;;;;;;;;;;;;8435624;28;27502;-82
2022/12/05 07:42:18;;;;;;;;;;;;;;;;;;8422368;28;28355;-82
2022/12/05 07:46:18;;;;;;;;;;;;;;;;;;8421709;28;28556;-84
2022/12/05 07:50:18;;;;;;;;;;;;;;;;;;8439320;28;28536;-84
2022/12/05 07:54:18;;;;;;;;;;;;;;;;;;8424808;28;28850;-83
2022/12/05 07:58:18;;;;;;;;;;;;;;;;;;8415999;28;28564;-81
2022/12/05 08:02:19;;;;;;;;;;;;;;;;;;8414691;28;28581;-84
2022/12/05 08:06:19;;;;;;;;;;;;;;;;;;8444848;28;27144;-84
2022/12/05 08:10:19;;;;;;;;;;;;;;;;;;8444810;28;28524;-85
2022/12/05 08:14:19;;;;;;;;;;;;;;;;;;8444953;28;27093;-83
2022/12/05 08:18:19;;;;;;;;;;;;;;;;;;8431271;28;28766;-84
2022/12/05 08:22:19;;;;;;;;;;;;;;;;;;8431687;28;28547;-83
2022/12/05 08:26:19;;;;;;;;;;;;;;;;;;8430431;27;28895;-84
2022/12/05 08:30:19;;;;;;;;;;;;;;;;;;8430647;28;28985;-83
2022/12/05 08:34:20;;;;;;;;;;;;;;;;;;8453546;28;27435;-84
2022/12/05 08:38:20;;;;;;;;;;;;;;;;;;8453558;28;29411;-83
2022/12/05 08:42:20;;;;;;;;;;;;;;;;;;8436690;28;28621;-84
2022/12/05 08:46:20;;;;;;;;;;;;;;;;;;8455893;28;27431;-84
2022/12/05 08:50:20;;;;;;;;;;;;;;;;;;8434506;28;28766;-84
2022/12/05 08:54:20;;;;;;;;;;;;;;;;;;8442782;28;28867;-84
2022/12/05 08:58:20;;;;;;;;;;;;;;;;;;8438930;28;27882;-85
2022/12/05 09:02:20;;;;;;;;;;;;;;;;;;8437972;28;28733;-84
2022/12/05 09:06:21;;;;;;;;;;;;;;;;;;8455678;28;27394;-84
2022/12/05 09:10:21;;;;;;;;;;;;;;;;;;8451190;28;27574;-84
2022/12/05 09:14:21;;;;;;;;;;;;;;;;;;8431417;28;28683;-84
2022/12/05 09:18:21;;;;;;;;;;;;;;;;;;8441472;28;29813;-83
2022/12/05 09:22:21;;;;;;;;;;;;;;;;;;8445629;28;27206;-83
2022/12/05 09:26:24;;;;;;;;;;;;;;;;;;8450683;28;27513;-83
2022/12/05 09:30:24;;;;;;;;;;;;;;;;;;8429599;28;29172;-83
2022/12/05 09:34:25;;;;;;;;;;;;;;;;;;8449031;28;27254;-82
2022/12/05 09:38:25;;;;;;;;;;;;;;;;;;8445641;27;27376;-84
2022/12/05 09:42:25;;;;;;;;;;;;;;;;;;8430163;28;28487;-82
2022/12/05 09:46:25;;;;;;;;;;;;;;;;;;8445994;28;27493;-82
2022/12/05 09:50:26;;;;;;;;;;;;;;;;;;8440225;28;28570;-82
2022/12/05 09:54:27;;;;;;;;;;;;;;;;;;8442241;28;27501;-83
2022/12/05 09:58:27;;;;;;;;;;;;;;;;;;8417163;28;28795;-82
2022/12/05 10:02:27;;;;;;;;;;;;;;;;;;8422925;28;28575;-81
2022/12/05 10:06:27;;;;;;;;;;;;;;;;;;8434650;28;28728;-82
2022/12/05 10:10:27;;;;;;;;;;;;;;;;;;8429051;28;28693;-83
2022/12/05 10:14:27;;;;;;;;;;;;;;;;;;8446223;28;28624;-84
2022/12/05 10:18:27;;;;;;;;;;;;;;;;;;8448173;28;27171;-83
2022/12/05 10:22:27;;;;;;;;;;;;;;;;;;8431479;28;29069;-82
2022/12/05 10:26:28;;;;;;;;;;;;;;;;;;8425871;28;29932;-83
2022/12/05 10:30:28;;;;;;;;;;;;;;;;;;8449103;28;27324;-84
2022/12/05 10:34:28;;;;;;;;;;;;;;;;;;8444493;28;27140;-82
2022/12/05 10:38:28;;;;;;;;;;;;;;;;;;8445662;28;27629;-82
2022/12/05 10:42:28;;;;;;;;;;;;;;;;;;8442895;28;27334;-82
2022/12/05 10:46:28;;;;;;;;;;;;;;;;;;8444866;28;27156;-83
2022/12/05 10:50:28;;;;;;;;;;;;;;;;;;8448979;27;29075;-84
2022/12/05 10:54:28;;;;;;;;;;;;;;;;;;8445789;28;28515;-82
2022/12/05 10:58:29;;;;;;;;;;;;;;;;;;8418570;28;28503;-82
2022/12/05 11:02:29;;;;;;;;;;;;;;;;;;8435650;28;27650;-82
2022/12/05 11:06:29;;;;;;;;;;;;;;;;;;8435507;28;27351;-81
2022/12/05 11:10:29;;;;;;;;;;;;;;;;;;8412901;28;28516;-84
2022/12/05 11:14:30;;;;;;;;;;;;;;;;;;8433837;28;27415;-80
2022/12/05 11:18:30;;;;;;;;;;;;;;;;;;8409239;28;28648;-81
2022/12/05 11:22:30;;;;;;;;;;;;;;;;;;8380453;28;28935;-81
2022/12/05 11:26:30;;;;;;;;;;;;;;;;;;8392718;28;27391;-81
2022/12/05 11:30:30;;;;;;;;;;;;;;;;;;8395430;28;27638;-82
2022/12/05 11:34:30;;;;;;;;;;;;;;;;;;8393263;28;27332;-82
2022/12/05 11:38:33;;;;;;;;;;;;;;;;;;8393206;28;28061;-83
2022/12/05 11:42:33;;;;;;;;;;;;;;;;;;8393863;28;27660;-82
2022/12/05 11:46:33;;;;;;;;;;;;;;;;;;8377621;28;29051;-81
2022/12/05 11:50:33;;;;;;;;;;;;;;;;;;8395252;28;27318;-81
2022/12/05 11:54:34;;;;;;;;;;;;;;;;;;8396755;28;27488;-81
2022/12/05 11:58:34;;;;;;;;;;;;;;;;;;8391902;28;27591;-82
2022/12/05 12:02:34;;;;;;;;;;;;;;;;;;8395365;28;27385;-82
2022/12/05 12:06:34;;;;;;;;;;;;;;;;;;8394218;28;28574;-81
2022/12/05 12:10:34;;;;;;;;;;;;;;;;;;8379687;28;28920;-83
2022/12/05 12:14:34;;;;;;;;;;;;;;;;;;8393452;28;27476;-82
2022/12/05 12:18:34;;;;;;;;;;;;;;;;;;8393511;28;27485;-82
2022/12/05 12:22:34;;;;;;;;;;;;;;;;;;8422080;27;27858;-81
2022/12/05 12:26:34;;;;;;;;;;;;;;;;;;8428449;28;28560;-82
2022/12/05 12:30:35;;;;;;;;;;;;;;;;;;8428393;28;27383;-82
2022/12/05 12:34:35;;;;;;;;;;;;;;;;;;8428408;28;27420;-84
2022/12/05 12:38:35;;;;;;;;;;;;;;;;;;8430820;28;27345;-80
2022/12/05 12:42:36;;;;;;;;;;;;;;;;;;8418535;28;28572;-80
2022/12/05 12:46:36;;;;;;;;;;;;;;;;;;8433064;28;27183;-81
2022/12/05 12:50:36;;;;;;;;;;;;;;;;;;8433341;28;27206;-82
2022/12/05 12:54:36;;;;;;;;;;;;;;;;;;8434879;28;27435;-81
2022/12/05 12:58:36;;;;;;;;;;;;;;;;;;8432997;28;27463;-81
2022/12/05 13:02:36;;;;;;;;;;;;;;;;;;8436767;28;28060;-81
2022/12/05 13:06:36;;;;;;;;;;;;;;;;;;8415491;28;30252;-82
2022/12/05 13:10:36;;;;;;;;;;;;;;;;;;8436243;28;27386;-82
2022/12/05 13:14:36;;;;;;;;;;;;;;;;;;8420222;28;28451;-82
2022/12/05 13:18:36;;;;;;;;;;;;;;;;;;8423826;28;28757;-82
2022/12/05 13:22:36;;;;;;;;;;;;;;;;;;8439381;28;27452;-82
2022/12/05 13:26:37;;;;;;;;;;;;;;;;;;8434477;28;27380;-82
2022/12/05 13:30:56;;;;;;;;;;;;;;;;;;8437555;28;27163;-83
2022/12/05 13:34:56;;;;;;;;;;;;;;;;;;8439516;28;27183;-82
2022/12/05 13:43:15;;;;;;;;;;;;;;;;;;8431692;28;27672;-83
2022/12/05 13:47:15;;;;;;;;;;;;;;;;;;8435417;28;28689;-83
2022/12/05 13:51:15;;;;;;;;;;;;;;;;;;8417454;28;28432;-82
2022/12/05 13:55:16;;;;;;;;;;;;;;;;;;8434127;28;27448;-84
2022/12/05 13:59:16;;;;;;;;;;;;;;;;;;8436973;28;28775;-82
2022/12/05 14:03:16;;;;;;;;;;;;;;;;;;8431365;28;27444;-83
2022/12/05 14:07:17;;;;;;;;;;;;;;;;;;8432292;28;27328;-84
2022/12/05 14:11:17;;;;;;;;;;;;;;;;;;8435673;28;27421;-83
2022/12/05 14:15:17;;;;;;;;;;;;;;;;;;8430302;28;27396;-83
2022/12/05 14:19:17;;;;;;;;;;;;;;;;;;8434865;28;27247;-81
2022/12/05 14:23:17;;;;;;;;;;;;;;;;;;8386993;28;28628;-80
2022/12/05 14:27:17;;;;;;;;;;;;;;;;;;8404072;28;27674;-82
2022/12/05 14:31:17;;;;;;;;;;;;;;;;;;8405134;28;27108;-81
2022/12/05 14:35:18;;;;;;;;;;;;;;;;;;8398292;28;28508;-82
2022/12/05 14:39:18;;;;;;;;;;;;;;;;;;8403462;28;27525;-81
2022/12/05 14:43:18;;;;;;;;;;;;;;;;;;8397239;28;27426;-81
2022/12/05 14:47:18;;;;;;;;;;;;;;;;;;8402480;28;27433;-80
2022/12/05 14:51:18;;;;;;;;;;;;;;;;;;8401291;28;27322;-79
2022/12/05 14:55:19;;;;;;;;;;;;;;;;;;8384856;28;28954;-81
2022/12/05 14:59:19;;;;;;;;;;;;;;;;;;8384265;28;29476;-80
2022/12/05 15:03:19;;;;;;;;;;;;;;;;;;8388602;28;28820;-81
2022/12/05 15:07:20;;;;;;;;;;;;;;;;;;8387125;28;28711;-82
2022/12/05 15:11:29;;;;;;;;;;;;;;;;;;8389068;28;28866;-81
2022/12/05 15:15:30;;;;;;;;;;;;;;;;;;8403364;28;27775;-81
2022/12/05 15:19:30;;;;;;;;;;;;;;;;;;8404340;28;27228;-82
2022/12/05 15:23:30;;;;;;;;;;;;;;;;;;8440808;28;27209;-81
2022/12/05 15:27:30;;;;;;;;;;;;;;;;;;8439247;28;27456;-80
2022/12/05 15:31:31;;;;;;;;;;;;;;;;;;8420368;28;28851;-80
2022/12/05 15:35:31;;;;;;;;;;;;;;;;;;8441138;27;27050;-82
2022/12/05 15:39:31;;;;;;;;;;;;;;;;;;8437045;28;27521;-81
2022/12/05 15:43:31;;;;;;;;;;;;;;;;;;8439183;28;27571;-84
2022/12/05 15:47:31;;;;;;;;;;;;;;;;;;8437762;28;28516;-82
2022/12/05 15:51:31;;;;;;;;;;;;;;;;;;8419338;28;28448;-80
2022/12/05 15:55:31;;;;;;;;;;;;;;;;;;8425629;28;28723;-81
2022/12/05 15:59:31;;;;;;;;;;;;;;;;;;8423201;28;30160;-80
2022/12/05 16:03:31;;;;;;;;;;;;;;;;;;8441790;28;27113;-82
2022/12/05 16:07:32;;;;;;;;;;;;;;;;;;8418020;28;29029;-83
2022/12/05 16:11:32;;;;;;;;;;;;;;;;;;8415311;28;28526;-81
2022/12/05 16:15:32;;;;;;;;;;;;;;;;;;8419714;28;28945;-82
2022/12/05 16:19:32;;;;;;;;;;;;;;;;;;8433184;28;27483;-83
2022/12/05 16:23:32;;;;;;;;;;;;;;;;;;8431918;28;27420;-82
2022/12/05 16:27:32;;;;;;;;;;;;;;;;;;8414246;28;28558;-84
2022/12/05 16:31:32;;;;;;;;;;;;;;;;;;8431411;28;27195;-83
2022/12/05 16:35:33;;;;;;;;;;;;;;;;;;8430707;28;28514;-82
2022/12/05 16:39:33;;;;;;;;;;;;;;;;;;8412937;28;28535;-84
2022/12/05 16:43:33;;;;;;;;;;;;;;;;;;8430914;28;27408;-83
2022/12/05 16:47:33;;;;;;;;;;;;;;;;;;8405975;27;28600;-81
2022/12/05 16:51:33;;;;;;;;;;;;;;;;;;8418167;28;28453;-81
2022/12/05 16:55:36;;;;;;;;;;;;;;;;;;8416863;28;27952;-82
2022/12/05 16:59:36;;;;;;;;;;;;;;;;;;8416174;28;28790;-83
2022/12/05 17:03:36;;;;;;;;;;;;;;;;;;8413879;28;28498;-82
2022/12/05 17:07:36;;;;;;;;;;;;;;;;;;8415906;28;30447;-83
2022/12/05 17:11:36;;;;;;;;;;;;;;;;;;8431088;28;27530;-83
2022/12/05 17:15:36;;;;;;;;;;;;;;;;;;8418607;28;28821;-85
2022/12/05 17:19:36;;;;;;;;;;;;;;;;;;8431373;28;27325;-85
2022/12/05 17:23:36;;;;;;;;;;;;;;;;;;8417942;28;28503;-82
2022/12/05 17:27:37;;;;;;;;;;;;;;;;;;8413173;28;30082;-81
2022/12/05 17:31:37;;;;;;;;;;;;;;;;;;8432359;28;27288;-82
2022/12/05 17:35:37;;;;;;;;;;;;;;;;;;8429955;28;28640;-82
2022/12/05 17:39:37;;;;;;;;;;;;;;;;;;8412620;28;28745;-80
2022/12/05 17:43:37;;;;;;;;;;;;;;;;;;8430818;28;27660;-80
2022/12/05 17:47:37;;;;;;;;;;;;;;;;;;8411465;27;28371;-80
2022/12/05 17:51:38;;;;;;;;;;;;;;;;;;8436161;27;27108;-80
2022/12/05 17:55:38;;;;;;;;;;;;;;;;;;8431981;27;27167;-78
2022/12/05 17:59:38;;;;;;;;;;;;;;;;;;8434083;27;28242;-81
2022/12/05 18:03:38;;;;;;;;;;;;;;;;;;8416069;28;28937;-79
2022/12/05 18:07:38;;;;;;;;;;;;;;;;;;8420848;28;28763;-79
2022/12/05 18:11:38;;;;;;;;;;;;;;;;;;8436348;27;27088;-81
2022/12/05 18:15:38;;;;;;;;;;;;;;;;;;8418746;27;28512;-84
2022/12/05 18:19:39;;;;;;;;;;;;;;;;;;8414979;28;28251;-84
2022/12/05 18:23:39;;;;;;;;;;;;;;;;;;8430892;28;28175;-82
2022/12/05 18:27:39;;;;;;;;;;;;;;;;;;8412801;28;28740;-81
2022/12/05 18:31:40;;;;;;;;;;;;;;;;;;8412751;28;28659;-81
2022/12/05 18:35:40;;;;;;;;;;;;;;;;;;8416304;28;28304;-81
2022/12/05 18:39:40;;;;;;;;;;;;;;;;;;8433996;28;27345;-81
2022/12/05 18:43:41;;;;;;;;;;;;;;;;;;8429265;28;27333;-81
2022/12/05 18:47:41;;;;;;;;;;;;;;;;;;8433315;28;27364;-81
2022/12/05 18:51:41;;;;;;;;;;;;;;;;;;8413188;28;27329;-81
2022/12/05 18:55:41;;;;;;;;;;;;;;;;;;8411085;28;28307;-81
2022/12/05 18:59:41;;;;;;;;;;;;;;;;;;8409395;28;28839;-81
2022/12/05 19:03:41;;;;;;;;;;;;;;;;;;8414962;28;28433;-83
2022/12/05 19:07:41;;;;;;;;;;;;;;;;;;8431170;28;27525;-81
2022/12/05 19:11:41;;;;;;;;;;;;;;;;;;8434163;27;28338;-81
2022/12/05 19:15:41;;;;;;;;;;;;;;;;;;8412096;28;46607;-83
2022/12/05 19:19:41;;;;;;;;;;;;;;;;;;8433223;28;27315;-81
2022/12/05 19:23:42;;;;;;;;;;;;;;;;;;8413139;28;28349;-81
2022/12/05 19:27:42;;;;;;;;;;;;;;;;;;8430545;28;28097;-81
2022/12/05 19:31:42;;;;;;;;;;;;;;;;;;8412533;28;28686;-80
2022/12/05 19:35:42;;;;;;;;;;;;;;;;;;8433092;28;27909;-80
2022/12/05 19:39:43;;;;;;;;;;;;;;;;;;8412116;28;28823;-80
2022/12/05 19:43:43;;;;;;;;;;;;;;;;;;8432064;28;27376;-81
2022/12/05 19:47:44;;;;;;;;;;;;;;;;;;8409165;28;28312;-81
2022/12/05 19:51:44;;;;;;;;;;;;;;;;;;8411249;28;28873;-82
2022/12/05 19:55:44;;;;;;;;;;;;;;;;;;8409258;28;28910;-82
2022/12/05 19:59:44;;;;;;;;;;;;;;;;;;8424311;28;27446;-81
2022/12/05 20:03:44;;;;;;;;;;;;;;;;;;8412686;28;28532;-81
2022/12/05 20:07:44;;;;;;;;;;;;;;;;;;8431676;28;27546;-80
2022/12/05 20:11:44;;;;;;;;;;;;;;;;;;8428469;28;28099;-80
2022/12/05 20:15:44;;;;;;;;;;;;;;;;;;8411261;28;28585;-80
2022/12/05 20:19:45;;;;;;;;;;;;;;;;;;8429932;28;28394;-79
2022/12/05 20:23:45;;;;;;;;;;;;;;;;;;8414663;28;27137;-80
2022/12/05 20:27:45;;;;;;;;;;;;;;;;;;8416830;28;27359;-80
2022/12/05 20:31:45;;;;;;;;;;;;;;;;;;8415922;28;28741;-80
2022/12/05 20:35:45;;;;;;;;;;;;;;;;;;8433833;28;27429;-81
2022/12/05 20:39:45;;;;;;;;;;;;;;;;;;8416170;28;28541;-78
2022/12/05 20:43:45;;;;;;;;;;;;;;;;;;8418976;28;28657;-81
2022/12/05 20:47:46;;;;;;;;;;;;;;;;;;8419806;28;28719;-81
2022/12/05 20:51:46;;;;;;;;;;;;;;;;;;8419187;28;29435;-80
2022/12/05 20:55:46;;;;;;;;;;;;;;;;;;8415817;28;28907;-80
2022/12/05 20:59:46;;;;;;;;;;;;;;;;;;8438977;28;27377;-82
2022/12/05 21:03:46;;;;;;;;;;;;;;;;;;8415275;28;28654;-80
2022/12/05 21:07:46;;;;;;;;;;;;;;;;;;8413562;28;29032;-82
2022/12/05 21:11:47;;;;;;;;;;;;;;;;;;8433763;28;28428;-82
2022/12/05 21:15:47;;;;;;;;;;;;;;;;;;8414221;28;28708;-80
2022/12/05 21:19:47;;;;;;;;;;;;;;;;;;8428800;28;28755;-81
2022/12/05 21:23:47;;;;;;;;;;;;;;;;;;8433697;28;27323;-81
2022/12/05 21:27:47;;;;;;;;;;;;;;;;;;8417505;28;28582;-80
2022/12/05 21:31:47;;;;;;;;;;;;;;;;;;8431883;28;27383;-80
2022/12/05 21:35:47;;;;;;;;;;;;;;;;;;8406986;28;27467;-82
2022/12/05 21:39:47;;;;;;;;;;;;;;;;;;8418410;28;28713;-81
2022/12/05 21:43:47;;;;;;;;;;;;;;;;;;8416657;28;27164;-83
2022/12/05 21:47:50;;;;;;;;;;;;;;;;;;8434534;28;28078;-80
2022/12/05 21:51:50;;;;;;;;;;;;;;;;;;8420685;28;29193;-79
2022/12/05 21:55:50;;;;;;;;;;;;;;;;;;8432663;28;28114;-82
2022/12/05 21:59:50;;;;;;;;;;;;;;;;;;8439625;28;28094;-82
2022/12/05 22:03:50;;;;;;;;;;;;;;;;;;8420325;28;28772;-81
2022/12/05 22:07:50;;;;;;;;;;;;;;;;;;8416286;28;28530;-81
2022/12/05 22:11:50;;;;;;;;;;;;;;;;;;8432145;28;28208;-81
2022/12/05 22:15:50;;;;;;;;;;;;;;;;;;8418715;28;28456;-81
2022/12/05 22:19:50;;;;;;;;;;;;;;;;;;8433699;28;27377;-82
2022/12/05 22:23:50;;;;;;;;;;;;;;;;;;8415467;28;27702;-84
2022/12/05 22:27:50;;;;;;;;;;;;;;;;;;8428359;28;28998;-82
2022/12/05 22:31:51;;;;;;;;;;;;;;;;;;8433432;28;27241;-81
2022/12/05 22:35:51;;;;;;;;;;;;;;;;;;8435009;28;27432;-82
2022/12/05 22:39:51;;;;;;;;;;;;;;;;;;8432084;28;28339;-82
2022/12/05 22:43:51;;;;;;;;;;;;;;;;;;8432483;28;28373;-82
2022/12/05 22:47:51;;;;;;;;;;;;;;;;;;8415342;28;28721;-83
2022/12/05 22:51:51;;;;;;;;;;;;;;;;;;8417626;28;28298;-82
2022/12/05 22:55:51;;;;;;;;;;;;;;;;;;8422473;28;28074;-81
2022/12/05 22:59:51;;;;;;;;;;;;;;;;;;8427751;27;27393;-81
2022/12/05 23:03:51;;;;;;;;;;;;;;;;;;8409553;27;27156;-82
2022/12/05 23:07:52;;;;;;;;;;;;;;;;;;8407432;27;28967;-81
2022/12/05 23:11:52;;;;;;;;;;;;;;;;;;8410060;27;28406;-82
2022/12/05 23:15:52;;;;;;;;;;;;;;;;;;8412384;27;29780;-82
2022/12/05 23:19:52;;;;;;;;;;;;;;;;;;8430838;27;27531;-81
2022/12/05 23:23:52;;;;;;;;;;;;;;;;;;8434202;28;27487;-82
2022/12/05 23:27:52;;;;;;;;;;;;;;;;;;8432833;28;27418;-82
2022/12/05 23:31:52;;;;;;;;;;;;;;;;;;8430816;28;28479;-82
2022/12/05 23:35:52;;;;;;;;;;;;;;;;;;8410552;28;28786;-82
2022/12/05 23:39:52;;;;;;;;;;;;;;;;;;8430418;28;27917;-83
2022/12/05 23:43:52;;;;;;;;;;;;;;;;;;8425709;28;27349;-84
2022/12/05 23:47:52;;;;;;;;;;;;;;;;;;8429240;28;27293;-80
2022/12/05 23:51:53;;;;;;;;;;;;;;;;;;8426070;28;28840;-82
2022/12/05 23:55:53;;;;;;;;;;;;;;;;;;8431117;28;27423;-82
2022/12/05 23:59:53;;;;;;;;;;;;;;;;;;8430856;28;27857;-81
